Time;durP1;ratioP1;P1;durP2;ratioP2;P2;SDS_P1;SDS_P2;PMS_P1;PMS_P2;Temp;Humidity;BMP_temperature;BMP_pressure;BME280_temperature;BME280_humidity;BME280_pressure;Samples;Min_cycle;Max_cycle;Signal;HPM_P1;HPM_P2
2022/01/11 00:00:08;;;;;;;4.75;3.63;;;;;;;19.09;52.69;97626.53;10290527;28;20512;-22
2022/01/11 00:05:17;;;;;;;6.28;3.30;;;;;;;19.04;52.79;97612.09;10290883;28;20058;-22
2022/01/11 00:10:29;;;;;;;5.80;3.38;;;;;;;19.08;52.86;97613.84;10291455;28;20034;-22
2022/01/11 00:15:30;;;;;;;6.35;3.75;;;;;;;19.08;52.73;97608.75;10308753;28;20481;-22
2022/01/11 00:20:31;;;;;;;5.72;3.50;;;;;;;19.08;52.93;97603.69;10313565;28;20105;-22
2022/01/11 00:25:45;;;;;;;9.80;3.55;;;;;;;19.05;52.70;97608.72;10289752;28;20058;-22
2022/01/11 00:30:47;;;;;;;6.38;4.20;;;;;;;19.06;52.85;97592.63;10289278;28;20437;-22
2022/01/11 00:35:59;;;;;;;4.30;2.95;;;;;;;19.09;52.71;97605.38;10289640;28;20027;-22
2022/01/11 00:41:02;;;;;;;5.72;3.17;;;;;;;19.07;52.71;97596.88;10289914;28;20035;-22
2022/01/11 00:46:04;;;;;;;4.93;3.50;;;;;;;19.05;52.46;97598.56;10302598;28;20031;-22
2022/01/11 00:51:04;;;;;;;6.15;3.50;;;;;;;19.07;52.65;97614.66;10302613;28;20042;-22
2022/01/11 00:56:05;;;;;;;5.40;3.37;;;;;;;19.04;52.63;97599.41;10327733;28;20026;-22
2022/01/11 01:01:06;;;;;;;4.55;3.70;;;;;;;19.04;52.54;97615.50;10307005;28;20298;-22
2022/01/11 01:06:06;;;;;;;3.33;2.75;;;;;;;19.05;52.56;97611.25;10287788;28;20031;-22
2022/01/11 01:11:08;;;;;;;5.85;3.20;;;;;;;19.04;52.52;97618.03;10287084;28;20042;-22
2022/01/11 01:16:15;;;;;;;5.93;2.92;;;;;;;19.00;52.74;97625.59;10317268;28;20121;-22
2022/01/11 01:21:38;;;;;;;5.82;3.28;;;;;;;19.03;52.64;97625.63;10301147;28;20030;-22
2022/01/11 01:26:39;;;;;;;6.30;2.83;;;;;;;19.02;52.45;97621.38;10286452;28;20054;-22
2022/01/11 01:31:40;;;;;;;5.88;3.20;;;;;;;19.02;52.45;97609.53;10287712;28;20382;-22
2022/01/11 01:36:40;;;;;;;3.88;2.90;;;;;;;18.92;52.68;97599.25;10287640;28;20030;-22
2022/01/11 01:41:43;;;;;;;4.55;3.13;;;;;;;19.04;52.56;97623.09;10287183;28;20047;-22
2022/01/11 01:46:43;;;;;;;4.43;2.83;;;;;;;19.03;52.52;97630.69;10287357;28;20498;-22
2022/01/11 01:51:45;;;;;;;4.93;3.23;;;;;;;19.04;52.41;97622.25;10306131;28;20033;-22
2022/01/11 01:56:46;;;;;;;4.15;2.80;;;;;;;19.03;52.38;97626.47;10327202;28;20387;-22
2022/01/11 02:01:48;;;;;;;4.72;3.13;;;;;;;19.04;52.37;97619.69;10300540;28;20363;-22
2022/01/11 02:06:49;;;;;;;3.75;2.88;;;;;;;19.00;52.40;97623.03;10311599;28;20034;-22
2022/01/11 02:11:49;;;;;;;4.03;2.78;;;;;;;18.99;52.55;97618.81;10326677;28;20045;-22
2022/01/11 02:16:56;;;;;;;4.78;2.72;;;;;;;19.02;52.31;97628.97;10325475;28;20034;-22
2022/01/11 02:21:57;;;;;;;2.90;2.30;;;;;;;19.02;52.26;97623.91;10305796;28;20035;-22
2022/01/11 02:26:59;;;;;;;5.85;3.17;;;;;;;18.99;52.51;97626.41;10293316;28;20047;-23
2022/01/11 02:32:00;;;;;;;8.52;3.00;;;;;;;19.00;52.44;97625.59;10294000;28;20472;-22
2022/01/11 02:37:00;;;;;;;5.03;2.88;;;;;;;18.81;52.31;97588.09;10293711;28;20054;-22
2022/01/11 02:42:24;;;;;;;4.22;2.60;;;;;;;19.01;52.20;97627.28;10298497;28;20043;-22
2022/01/11 02:47:25;;;;;;;3.80;2.53;;;;;;;19.00;52.16;97620.50;10292366;28;20031;-22
2022/01/11 02:52:28;;;;;;;3.55;2.60;;;;;;;19.01;52.43;97623.03;10317456;28;20096;-22
2022/01/11 02:57:33;;;;;;;4.65;3.13;;;;;;;18.98;52.50;97622.16;10321054;28;20114;-22
2022/01/11 03:02:43;;;;;;;3.70;2.70;;;;;;;18.99;52.44;97626.41;10291923;28;20080;-23
2022/01/11 03:07:44;;;;;;;4.05;2.78;;;;;;;18.99;52.44;97629.78;10291246;28;20085;-22
2022/01/11 03:12:45;;;;;;;5.00;3.65;;;;;;;19.00;52.42;97628.13;10291894;28;20058;-22
2022/01/11 03:17:46;;;;;;;3.50;2.30;;;;;;;19.01;52.29;97622.22;10328288;28;20034;-22
2022/01/11 03:22:47;;;;;;;5.13;2.53;;;;;;;19.00;52.18;97630.66;10305714;28;20027;-22
2022/01/11 03:27:48;;;;;;;2.85;2.03;;;;;;;18.99;52.37;97623.88;10290899;28;20494;-22
2022/01/11 03:32:52;;;;;;;3.83;2.42;;;;;;;19.00;52.45;97638.28;10289173;28;20045;-22
2022/01/11 03:38:00;;;;;;;5.43;2.05;;;;;;;18.99;52.23;97636.56;10289513;28;20490;-22
2022/01/11 03:43:02;;;;;;;4.53;3.38;;;;;;;19.01;52.43;97645.06;10289690;28;20026;-22
2022/01/11 03:48:08;;;;;;;2.88;2.35;;;;;;;18.98;52.57;97650.06;10290133;28;20035;-22
2022/01/11 03:53:13;;;;;;;4.30;3.17;;;;;;;18.97;52.49;97648.38;10320795;28;20034;-22
2022/01/11 03:58:24;;;;;;;3.80;2.30;;;;;;;19.00;52.52;97638.28;10325988;28;20450;-22
2022/01/11 04:03:25;;;;;;;3.42;2.55;;;;;;;18.98;52.60;97637.38;10290992;28;20073;-22
2022/01/11 04:08:26;;;;;;;4.85;2.55;;;;;;;18.98;52.29;97647.53;10289438;28;20035;-22
2022/01/11 04:13:27;;;;;;;4.53;2.50;;;;;;;18.99;52.32;97649.25;10291331;28;20573;-22
2022/01/11 04:18:27;;;;;;;3.53;2.30;;;;;;;19.01;52.35;97642.50;10330608;28;20034;-22
2022/01/11 04:23:28;;;;;;;4.13;2.75;;;;;;;19.01;52.51;97657.75;10290318;28;20031;-22
2022/01/11 04:28:29;;;;;;;3.42;2.28;;;;;;;19.01;52.42;97652.66;10289630;28;20153;-22
2022/01/11 04:33:31;;;;;;;4.53;2.10;;;;;;;18.99;52.45;97646.72;10288658;28;20035;-22
2022/01/11 04:38:32;;;;;;;2.30;2.10;;;;;;;18.99;52.36;97650.09;10288716;28;20042;-22
2022/01/11 04:43:34;;;;;;;3.88;2.33;;;;;;;18.98;51.98;97650.94;10287593;28;20031;-22
2022/01/11 04:48:34;;;;;;;4.22;2.47;;;;;;;18.70;52.59;97613.38;10303276;28;20386;-22
2022/01/11 04:53:37;;;;;;;5.32;2.30;;;;;;;18.97;52.43;97650.91;10307202;28;20100;-23
2022/01/11 04:58:37;;;;;;;2.92;1.95;;;;;;;19.00;52.47;97658.56;10313541;28;20041;-22
2022/01/11 05:03:38;;;;;;;3.47;3.17;;;;;;;19.03;52.28;97663.69;10311412;28;20057;-22
2022/01/11 05:08:39;;;;;;;3.35;1.92;;;;;;;19.02;52.06;97670.44;10287423;28;20289;-22
2022/01/11 05:13:41;;;;;;;3.13;2.33;;;;;;;19.06;52.00;97664.56;10302957;28;20533;-22
2022/01/11 05:18:58;;;;;;;2.83;2.10;;;;;;;18.98;52.04;97652.59;10297481;28;20034;-22
2022/01/11 05:23:59;;;;;;;3.70;1.90;;;;;;;19.13;52.01;97663.81;10288211;28;20046;-22
2022/01/11 05:28:59;;;;;;;2.85;2.08;;;;;;;19.14;51.73;97664.66;10288471;28;20113;-22
2022/01/11 05:34:00;;;;;;;8.50;2.47;;;;;;;19.11;52.05;97673.13;10285598;28;20089;-22
2022/01/11 05:39:00;;;;;;;6.05;2.42;;;;;;;19.17;51.57;97680.78;10302244;28;20482;-22
2022/01/11 05:44:01;;;;;;;4.15;2.83;;;;;;;19.17;51.29;97682.50;10285322;28;20046;-22
2022/01/11 05:49:02;;;;;;;7.15;1.90;;;;;;;19.06;51.09;97666.25;10285748;28;20034;-22
2022/01/11 05:54:02;;;;;;;4.38;2.10;;;;;;;18.94;48.68;97696.56;10305826;28;20485;-22
2022/01/11 05:59:03;;;;;;;3.95;2.10;;;;;;;18.87;49.15;97695.63;10331481;28;20038;-22
2022/01/11 06:04:04;;;;;;;3.08;2.10;;;;;;;19.00;49.51;97716.94;10319486;28;20053;-22
2022/01/11 06:09:05;;;;;;;4.80;2.17;;;;;;;18.97;49.12;97720.28;10312943;28;20134;-22
2022/01/11 06:14:06;;;;;;;2.80;2.22;;;;;;;18.96;49.83;97715.19;10298838;28;20027;-22
2022/01/11 06:19:06;;;;;;;2.30;1.75;;;;;;;18.95;49.69;97718.56;10300609;28;20038;-22
2022/01/11 06:24:16;;;;;;;6.15;2.90;;;;;;;18.85;45.13;97731.97;10298661;28;20058;-22
2022/01/11 06:29:16;;;;;;;6.88;2.90;;;;;;;18.85;48.55;97732.78;10298534;28;20031;-21
2022/01/11 06:34:17;;;;;;;19.40;3.05;;;;;;;18.98;49.23;97728.75;10298297;28;20397;-22
2022/01/11 06:39:17;;;;;;;6.90;2.70;;;;;;;17.45;44.15;97704.16;10300199;28;20041;-21
2022/01/11 06:44:19;;;;;;;11.13;2.95;;;;;;;18.37;47.35;97731.19;10297966;28;20042;-21
2022/01/11 06:49:20;;;;;;;8.65;2.53;;;;;;;18.58;48.00;97736.63;10297894;28;20023;-21
2022/01/11 06:54:21;;;;;;;6.72;2.33;;;;;;;18.62;48.62;97743.44;10299411;28;20035;-21
2022/01/11 06:59:23;;;;;;;5.75;2.88;;;;;;;18.73;49.08;97752.91;10298070;28;20142;-21
2022/01/11 07:04:24;;;;;;;6.97;2.25;;;;;;;18.76;49.26;97767.34;10295021;28;20027;-21
2022/01/11 07:09:29;;;;;;;5.13;2.35;;;;;;;18.77;49.48;97762.28;10291502;28;20466;-22
2022/01/11 07:14:30;;;;;;;4.90;2.33;;;;;;;18.76;49.95;97774.94;10292737;28;20031;-22
2022/01/11 07:19:34;;;;;;;5.78;2.20;;;;;;;18.77;50.02;97774.13;10291301;28;20029;-21
2022/01/11 07:24:39;;;;;;;4.95;2.08;;;;;;;18.77;50.24;97781.72;10291232;28;20043;-22
2022/01/11 07:29:39;;;;;;;6.90;2.90;;;;;;;18.76;50.46;97783.41;10307751;28;20089;-22
2022/01/11 07:34:40;;;;;;;5.20;2.03;;;;;;;18.78;50.49;97803.72;10290196;28;20441;-21
2022/01/11 07:39:41;;;;;;;4.07;1.92;;;;;;;18.79;50.52;97808.84;10290980;28;20031;-21
2022/01/11 07:44:43;;;;;;;4.13;1.75;;;;;;;18.77;50.55;97813.00;10290031;28;20054;-21
2022/01/11 07:49:47;;;;;;;4.05;1.90;;;;;;;18.78;50.56;97811.34;10290460;28;20497;-21
2022/01/11 07:54:47;;;;;;;3.17;1.95;;;;;;;18.76;50.86;97815.53;10290215;28;20030;-22
2022/01/11 07:59:51;;;;;;;4.25;2.08;;;;;;;18.79;50.70;97810.50;10289758;28;20031;-22
2022/01/11 08:04:53;;;;;;;2.80;1.80;;;;;;;18.80;50.82;97814.75;10288265;28;20476;-22
2022/01/11 08:09:54;;;;;;;2.72;1.67;;;;;;;18.79;50.81;97823.19;10289485;28;20039;-22
2022/01/11 08:14:55;;;;;;;3.10;1.90;;;;;;;18.78;50.88;97826.56;10288844;28;20031;-22
2022/01/11 08:19:55;;;;;;;2.78;1.70;;;;;;;18.79;51.00;97833.34;10290829;28;20605;-21
2022/01/11 08:24:56;;;;;;;3.80;2.10;;;;;;;18.79;50.88;97826.59;10304296;28;20593;-22
2022/01/11 08:29:57;;;;;;;2.42;1.75;;;;;;;18.78;50.96;97824.03;10288371;28;20413;-22
2022/01/11 08:34:59;;;;;;;2.80;1.88;;;;;;;18.80;50.84;97835.03;10289556;28;20409;-22
2022/01/11 08:39:59;;;;;;;2.10;1.70;;;;;;;18.77;51.09;97837.53;10289993;28;20038;-22
2022/01/11 08:45:02;;;;;;;4.38;1.75;;;;;;;18.56;51.26;97794.06;10288063;28;20089;-22
2022/01/11 08:50:11;;;;;;;2.30;1.95;;;;;;;18.79;51.08;97835.88;10287970;28;20122;-22
2022/01/11 08:55:14;;;;;;;3.28;1.80;;;;;;;18.79;51.25;97848.56;10287998;28;20505;-22
2022/01/11 09:00:18;;;;;;;2.17;1.73;;;;;;;18.62;51.14;97829.66;10288216;28;20031;-22
2022/01/11 09:05:22;;;;;;;2.17;1.60;;;;;;;18.76;51.27;97854.44;10287689;28;20481;-22
2022/01/11 09:10:23;;;;;;;2.03;1.80;;;;;;;18.69;51.21;97834.91;10288631;28;20121;-22
2022/01/11 09:15:24;;;;;;;3.28;1.95;;;;;;;18.76;51.16;97846.00;10287267;28;20126;-22
2022/01/11 09:20:25;;;;;;;2.55;1.90;;;;;;;18.73;51.29;97843.38;10286754;28;20404;-22
2022/01/11 09:25:26;;;;;;;2.55;2.17;;;;;;;18.80;51.29;97845.19;10302863;28;20046;-22
2022/01/11 09:30:31;;;;;;;3.38;1.83;;;;;;;18.73;51.36;97844.25;10286158;28;20484;-22
2022/01/11 09:35:34;;;;;;;1.67;1.40;;;;;;;18.74;51.33;97834.97;10286334;28;20030;-22
2022/01/11 09:40:51;;;;;;;1.80;1.50;;;;;;;18.83;51.24;97851.19;10286988;28;20053;-22
2022/01/11 09:45:54;;;;;;;2.80;1.40;;;;;;;18.79;51.20;97853.63;10285878;28;20031;-22
2022/01/11 09:50:54;;;;;;;2.30;1.73;;;;;;;18.62;51.13;97824.59;10286223;28;20042;-22
2022/01/11 09:55:55;;;;;;;2.67;1.58;;;;;;;18.79;51.33;97846.03;10286630;28;20422;-22
2022/01/11 10:00:59;;;;;;;2.17;1.80;;;;;;;18.79;51.38;97843.50;10285922;28;20060;-22
2022/01/11 10:06:24;;;;;;;2.88;1.65;;;;;;;18.79;51.32;97848.56;10285899;28;20060;-22
2022/01/11 10:11:36;;;;;;;2.10;1.40;;;;;;;18.78;51.30;97846.84;10285816;28;20525;-22
2022/01/11 10:16:37;;;;;;;3.45;1.60;;;;;;;18.77;51.46;97846.00;10299752;28;20027;-22
2022/01/11 10:21:40;;;;;;;1.80;1.40;;;;;;;18.77;51.31;97840.91;10285859;28;20113;-21
2022/01/11 10:26:44;;;;;;;1.97;1.70;;;;;;;18.69;51.47;97832.34;10285394;28;20524;-22
2022/01/11 10:31:45;;;;;;;1.80;1.40;;;;;;;18.80;51.45;97846.06;10285295;28;20348;-22
2022/01/11 10:36:46;;;;;;;1.42;1.33;;;;;;;18.81;51.31;97854.50;10285445;28;20548;-22
2022/01/11 10:41:50;;;;;;;2.10;1.77;;;;;;;18.79;51.58;97848.56;10291869;28;20523;-22
2022/01/11 10:47:03;;;;;;;1.80;1.50;;;;;;;18.79;51.62;97858.72;10308956;28;20536;-22
2022/01/11 10:52:34;;;;;;;1.98;1.30;;;;;;;18.80;51.55;97856.22;10307658;28;20045;-22
2022/01/11 10:58:00;;;;;;;1.90;1.27;;;;;;;18.81;51.51;97851.97;10292646;28;20038;-22
2022/01/11 11:03:07;;;;;;;3.20;1.77;;;;;;;18.82;51.63;97856.25;10292101;28;20034;-22
2022/01/11 11:08:11;;;;;;;1.77;1.27;;;;;;;18.77;51.96;97847.69;10303489;28;20146;-22
2022/01/11 11:13:21;;;;;;;1.98;1.52;;;;;;;18.76;51.73;97844.28;10307787;28;20259;-22
2022/01/11 11:18:33;;;;;;;1.63;1.33;;;;;;;18.78;51.85;97851.94;10292050;28;20190;-22
2022/01/11 11:23:35;;;;;;;1.60;1.38;;;;;;;18.79;51.76;97848.56;10291341;28;20117;-22
2022/01/11 11:28:36;;;;;;;1.35;1.20;;;;;;;18.85;51.63;97846.13;10292875;28;20058;-21
2022/01/11 11:33:39;;;;;;;1.60;1.35;;;;;;;18.67;51.64;97807.78;10292271;28;20042;-22
2022/01/11 11:38:52;;;;;;;1.70;1.33;;;;;;;18.86;51.73;97840.22;10332364;28;20481;-22
2022/01/11 11:44:09;;;;;;;1.88;1.60;;;;;;;18.80;48.11;97842.66;10314138;28;20118;-20
2022/01/11 11:49:11;;;;;;;;;;;;;;;18.85;51.49;97841.06;10290325;28;20039;-21
2022/01/11 11:54:13;;;;;;;1.75;1.27;;;;;;;18.86;52.31;97841.09;10290488;28;20288;-22
2022/01/11 11:59:16;;;;;;;3.50;1.40;;;;;;;18.88;52.72;97838.56;10290929;28;20154;-22
2022/01/11 12:04:16;;;;;;;4.90;1.63;;;;;;;18.91;52.76;97839.47;10291021;28;20537;-22
2022/01/11 12:09:20;;;;;;;6.30;1.70;;;;;;;19.07;52.54;97831.25;10291026;28;20043;-21
2022/01/11 12:14:31;;;;;;;2.15;1.35;;;;;;;19.01;52.90;97832.88;10290471;28;20297;-22
2022/01/11 12:19:53;;;;;;;2.13;1.58;;;;;;;18.98;52.96;97836.19;10290217;28;20501;-22
2022/01/11 12:25:03;;;;;;;2.65;1.73;;;;;;;18.94;53.33;97833.59;10288603;28;20068;-23
2022/01/11 12:30:08;;;;;;;5.43;1.85;;;;;;;18.91;53.92;97829.31;10289808;28;20042;-22
2022/01/11 12:35:11;;;;;;;5.70;1.80;;;;;;;18.95;53.64;97815.00;10289367;28;20556;-21
2022/01/11 12:40:31;;;;;;;5.15;1.67;;;;;;;18.92;54.45;97814.97;10289638;28;20528;-22
2022/01/11 12:45:53;;;;;;;3.63;3.17;;;;;;;18.88;55.05;97818.25;10288652;28;20070;-22
2022/01/11 12:51:00;;;;;;;2.63;1.73;;;;;;;18.87;55.20;97798.78;10289721;28;20039;-22
2022/01/11 12:56:00;;;;;;;2.45;1.35;;;;;;;18.97;54.27;97811.66;10290678;28;20086;-22
2022/01/11 13:01:18;;;;;;;8.13;1.90;;;;;;;18.78;48.89;97817.28;10290835;28;20420;-22
2022/01/11 13:06:18;;;;;;;4.80;1.77;;;;;;;18.94;54.05;97810.75;10289791;28;20302;-22
2022/01/11 13:11:20;;;;;;;5.57;2.00;;;;;;;18.93;53.73;97809.88;10289719;28;20412;-22
2022/01/11 13:16:26;;;;;;;3.08;1.80;;;;;;;18.91;54.10;97815.78;10289064;28;20036;-22
2022/01/11 13:21:26;;;;;;;2.60;1.27;;;;;;;18.88;54.42;97808.09;10289441;28;20030;-21
2022/01/11 13:26:28;;;;;;;3.13;1.50;;;;;;;18.89;54.71;97809.81;10289731;28;20397;-22
2022/01/11 13:31:33;;;;;;;1.73;1.48;;;;;;;18.88;54.96;97810.66;10288830;28;20039;-22
2022/01/11 13:36:38;;;;;;;4.25;1.58;;;;;;;18.63;54.95;97776.44;10289004;28;20046;-22
2022/01/11 13:41:45;;;;;;;12.70;2.92;;;;;;;18.87;55.15;97811.47;10288580;28;20038;-22
2022/01/11 13:46:50;;;;;;;2.22;1.30;;;;;;;18.88;55.00;97813.19;10288504;28;20126;-22
2022/01/11 13:51:56;;;;;;;5.05;1.70;;;;;;;18.87;55.29;97803.88;10287771;28;20417;-22
2022/01/11 13:56:57;;;;;;;4.93;1.27;;;;;;;18.93;54.99;97806.50;10288358;28;20058;-22
2022/01/11 14:02:04;;;;;;;5.35;1.70;;;;;;;19.05;54.46;97806.69;10287907;28;20066;-22
2022/01/11 14:07:15;;;;;;;1.80;1.08;;;;;;;18.95;54.94;97804.84;10288820;28;20417;-22
2022/01/11 14:12:25;;;;;;;2.40;1.70;;;;;;;18.94;55.06;97805.69;10288054;28;20031;-22
2022/01/11 14:17:29;;;;;;;5.68;2.00;;;;;;;18.92;55.20;97812.41;10296075;28;20139;-22
2022/01/11 14:22:45;;;;;;;1.20;1.10;;;;;;;18.90;55.47;97808.97;10294979;28;20621;-22
2022/01/11 14:28:06;;;;;;;4.05;1.50;;;;;;;18.91;55.24;97805.66;10294942;28;20098;-22
2022/01/11 14:33:28;;;;;;;2.20;1.65;;;;;;;18.91;55.13;97810.72;10294808;28;20041;-22
2022/01/11 14:38:45;;;;;;;4.70;1.63;;;;;;;18.88;55.05;97813.19;10294744;28;20057;-22
2022/01/11 14:43:59;;;;;;;1.17;1.08;;;;;;;18.88;54.89;97808.09;10293977;28;20034;-22
2022/01/11 14:49:04;;;;;;;2.15;1.27;;;;;;;18.89;54.46;97819.97;10294108;28;20039;-22
2022/01/11 14:54:09;;;;;;;2.22;1.05;;;;;;;18.94;54.20;97820.91;10293952;28;20056;-22
2022/01/11 14:59:12;;;;;;;3.00;1.15;;;;;;;18.90;54.68;97832.69;10293798;28;20046;-22
2022/01/11 15:04:18;;;;;;;1.50;0.95;;;;;;;18.88;54.58;97830.94;10293313;28;20027;-22
2022/01/11 15:09:22;;;;;;;1.83;1.30;;;;;;;18.86;54.65;97825.00;10293633;28;20109;-22
2022/01/11 15:14:27;;;;;;;3.40;1.27;;;;;;;18.86;54.48;97819.94;10293445;28;20034;-22
2022/01/11 15:19:28;;;;;;;2.55;1.95;;;;;;;18.72;51.57;97831.53;10292693;28;20031;-22
2022/01/11 15:24:30;;;;;;;3.28;0.95;;;;;;;18.72;54.52;97821.38;10290970;28;20494;-19
2022/01/11 15:29:31;;;;;;;3.67;1.30;;;;;;;18.80;54.71;97841.00;10292984;28;20026;-22
2022/01/11 15:34:33;;;;;;;2.05;1.73;;;;;;;18.69;51.95;97854.31;10292234;28;20027;-22
2022/01/11 15:39:34;;;;;;;4.07;1.30;;;;;;;18.90;54.26;97859.72;10292724;28;20038;-22
2022/01/11 15:44:34;;;;;;;7.83;2.23;;;;;;;18.96;54.28;97862.38;10293242;28;20479;-22
2022/01/11 15:49:35;;;;;;;5.68;1.60;;;;;;;18.93;54.60;97862.34;10293394;28;20517;-22
2022/01/11 15:54:35;;;;;;;4.20;1.60;;;;;;;18.99;54.10;97868.38;10293477;28;20038;-22
2022/01/11 15:59:36;;;;;;;7.30;1.83;;;;;;;18.99;54.50;97870.91;10292889;28;20039;-22
2022/01/11 16:04:36;;;;;;;7.77;1.70;;;;;;;18.78;52.75;97870.56;10292688;28;20039;-22
2022/01/11 16:09:36;;;;;;;2.43;1.90;;;;;;;18.90;54.68;97874.97;10293204;28;20030;-22
2022/01/11 16:14:37;;;;;;;2.57;1.37;;;;;;;18.89;54.77;97880.88;10292437;28;20768;-22
2022/01/11 16:19:37;;;;;;;4.80;1.50;;;;;;;19.02;53.73;97880.25;10292721;28;20297;-23
2022/01/11 16:24:38;;;;;;;2.30;1.50;;;;;;;19.10;53.71;97899.00;10291846;28;20495;-22
2022/01/11 16:29:38;;;;;;;3.88;1.70;;;;;;;18.95;53.59;97896.22;10295948;28;20034;-22
2022/01/11 16:34:40;;;;;;;3.03;1.60;;;;;;;19.14;53.41;97898.22;10308384;28;20074;-22
2022/01/11 16:39:56;;;;;;;3.75;1.38;;;;;;;19.19;53.31;97911.88;10324956;28;20540;-21
2022/01/11 16:44:58;;;;;;;;;;;;;;;19.14;53.51;97918.53;10301102;28;20512;-22
2022/01/11 16:49:59;;;;;;;3.65;1.30;;;;;;;19.02;54.08;97921.69;10296162;28;19914;-22
2022/01/11 16:55:00;;;;;;;3.30;1.50;;;;;;;18.99;54.22;97913.22;10286918;28;20039;-22
2022/01/11 17:00:00;;;;;;;7.07;1.30;;;;;;;18.92;53.68;97911.41;10307439;28;20125;-21
2022/01/11 17:05:01;;;;;;;4.93;1.50;;;;;;;18.94;53.66;97927.50;10308978;28;20549;-22
2022/01/11 17:10:14;;;;;;;4.63;1.30;;;;;;;18.98;53.94;97930.09;10290302;28;20061;-22
2022/01/11 17:15:16;;;;;;;3.45;1.23;;;;;;;18.96;54.13;97920.75;10290077;28;20027;-22
2022/01/11 17:20:18;;;;;;;2.78;1.30;;;;;;;18.95;54.04;97930.06;10287341;28;20058;-21
2022/01/11 17:25:19;;;;;;;5.72;1.67;;;;;;;19.04;53.71;97931.88;10287857;28;20497;-22
2022/01/11 17:30:22;;;;;;;9.18;1.77;;;;;;;19.02;54.01;97946.25;10287213;28;20038;-22
2022/01/11 17:35:23;;;;;;;4.15;1.30;;;;;;;18.99;53.99;97948.75;10287438;28;20046;-22
2022/01/11 17:40:23;;;;;;;1.60;1.05;;;;;;;18.94;54.08;97955.41;10287470;28;20494;-22
2022/01/11 17:45:24;;;;;;;1.80;1.40;;;;;;;18.95;53.48;97954.59;10286629;28;20426;-22
2022/01/11 17:50:25;;;;;;;5.20;1.30;;;;;;;19.00;53.67;97963.16;10295035;28;20045;-22
2022/01/11 17:55:25;;;;;;;4.40;1.70;;;;;;;19.04;53.81;97969.97;10319037;28;20038;-22
2022/01/11 18:00:26;;;;;;;3.05;1.30;;;;;;;19.08;53.25;97975.13;10305502;28;20408;-22
2022/01/11 18:05:27;;;;;;;5.07;1.80;;;;;;;19.07;53.57;97978.50;10300463;28;20038;-22
2022/01/11 18:10:27;;;;;;;3.97;1.93;;;;;;;18.99;53.85;97980.03;10301371;28;20572;-22
2022/01/11 18:15:28;;;;;;;8.93;2.83;;;;;;;18.98;53.91;97987.63;10286608;28;20308;-22
2022/01/11 18:20:30;;;;;;;7.47;2.60;;;;;;;19.11;53.15;97994.63;10286474;28;20046;-22
2022/01/11 18:25:31;;;;;;;15.38;3.42;;;;;;;19.01;53.57;98002.91;10286855;28;20096;-22
2022/01/11 18:30:34;;;;;;;5.72;2.78;;;;;;;18.93;53.93;97992.59;10286669;28;20126;-22
2022/01/11 18:35:35;;;;;;;12.88;2.95;;;;;;;18.93;53.91;98000.22;10285934;28;20038;-21
2022/01/11 18:40:36;;;;;;;7.07;2.88;;;;;;;18.93;53.83;98002.75;10285773;28;20417;-22
2022/01/11 18:45:36;;;;;;;11.80;2.88;;;;;;;18.92;53.88;98000.22;10285194;28;20067;-22
2022/01/11 18:50:37;;;;;;;5.43;2.33;;;;;;;18.90;54.00;98015.41;10286016;28;20067;-22
2022/01/11 18:55:38;;;;;;;9.18;2.58;;;;;;;18.90;53.99;98006.91;10285851;28;20041;-22
2022/01/11 19:00:38;;;;;;;8.73;2.78;;;;;;;18.89;53.94;98007.75;10291672;28;20406;-22
2022/01/11 19:05:39;;;;;;;7.07;2.40;;;;;;;18.95;53.37;98007.88;10306604;28;20053;-22
2022/01/11 19:10:40;;;;;;;5.32;2.90;;;;;;;19.03;52.81;98019.03;10315959;28;20042;-22
2022/01/11 19:15:40;;;;;;;8.05;3.90;;;;;;;18.92;52.62;97993.44;10316876;28;20033;-22
2022/01/11 19:20:41;;;;;;;8.23;4.87;;;;;;;18.94;53.27;98022.25;10319877;28;20394;-23
2022/01/11 19:25:41;;;;;;;6.97;4.95;;;;;;;18.87;53.24;98020.44;10317674;28;20297;-23
2022/01/11 19:30:41;;;;;;;7.90;5.10;;;;;;;18.81;53.19;98014.38;10316528;28;20407;-23
2022/01/11 19:35:42;;;;;;;10.73;6.22;;;;;;;18.66;53.28;97991.25;10319642;28;20297;-21
2022/01/11 19:40:42;;;;;;;8.60;5.57;;;;;;;18.88;52.99;98026.34;10319967;28;20217;-23
2022/01/11 19:45:43;;;;;;;10.95;6.20;;;;;;;18.88;53.25;98037.38;10311486;28;20049;-22
2022/01/11 19:50:43;;;;;;;7.82;5.20;;;;;;;18.96;52.14;98035.84;10318758;28;20049;-23
2022/01/11 19:55:44;;;;;;;9.35;6.05;;;;;;;18.98;52.50;98043.47;10322275;28;20113;-23
2022/01/11 20:00:44;;;;;;;10.18;6.00;;;;;;;18.96;52.55;98046.00;10306785;28;20077;-23
2022/01/11 20:05:47;;;;;;;8.67;5.77;;;;;;;18.97;51.60;98041.75;10301700;28;20104;-23
2022/01/11 20:10:49;;;;;;;6.82;5.32;;;;;;;18.97;51.99;98046.81;10286521;28;20285;-23
2022/01/11 20:15:49;;;;;;;7.13;5.18;;;;;;;18.98;50.78;98048.53;10286986;28;20399;-23
2022/01/11 20:20:52;;;;;;;9.27;5.90;;;;;;;18.97;51.42;98047.69;10286907;28;20038;-22
2022/01/11 20:31:13;;;;;;;7.47;5.40;;;;;;;18.93;50.94;98052.69;10287095;28;20182;-22
2022/01/11 20:36:14;;;;;;;9.73;6.18;;;;;;;18.95;49.61;98056.09;10285746;28;20039;-22
2022/01/11 20:41:15;;;;;;;6.57;5.13;;;;;;;18.95;50.23;98061.19;10324458;28;20038;-22
2022/01/11 20:46:15;;;;;;;7.85;5.55;;;;;;;18.86;49.65;98078.75;10283173;28;20155;-22
2022/01/11 20:51:25;;;;;;;6.17;5.53;;;;;;;18.86;50.99;98081.31;10285117;28;20086;-22
2022/01/11 20:56:27;;;;;;;7.85;5.03;;;;;;;18.80;51.89;98084.56;10285563;28;20042;-23
2022/01/11 21:01:33;;;;;;;6.55;4.70;;;;;;;18.80;52.16;98088.78;10290022;28;20077;-22
2022/01/11 21:06:33;;;;;;;7.03;4.73;;;;;;;18.80;52.39;98104.88;10315886;28;20595;-23
2022/01/11 21:11:34;;;;;;;7.57;5.13;;;;;;;18.79;52.49;98109.91;10324851;28;20113;-23
2022/01/11 21:21:54;;;;;;;5.50;4.80;;;;;;;18.87;51.22;98100.78;10300129;28;20681;-23
2022/01/11 21:26:57;;;;;;;7.30;4.55;;;;;;;18.88;51.77;98103.34;10301387;28;20031;-22
2022/01/11 21:31:57;;;;;;;6.90;4.63;;;;;;;18.86;51.78;98104.13;10287677;28;20429;-23
2022/01/11 21:36:58;;;;;;;6.20;4.38;;;;;;;18.90;52.04;98105.91;10287121;28;20038;-22
2022/01/11 21:41:58;;;;;;;6.30;4.57;;;;;;;18.89;52.26;98116.88;10287478;28;20038;-23
2022/01/11 21:47:02;;;;;;;9.55;4.50;;;;;;;18.87;52.08;98114.31;10292185;28;20356;-23
2022/01/11 21:52:07;;;;;;;6.82;5.22;;;;;;;18.89;51.98;98109.25;10290485;28;20203;-23
2022/01/11 21:57:07;;;;;;;6.60;4.63;;;;;;;18.91;51.92;98107.63;10286964;28;20031;-23
2022/01/11 22:02:08;;;;;;;5.50;4.07;;;;;;;18.90;52.18;98116.03;10287045;28;20038;-22
2022/01/11 22:07:09;;;;;;;6.68;4.53;;;;;;;18.87;52.57;98109.25;10286171;28;20290;-22
2022/01/11 22:12:11;;;;;;;5.53;4.03;;;;;;;18.91;52.45;98107.63;10286246;28;20046;-22
2022/01/11 22:22:21;;;;;;;8.80;3.72;;;;;;;18.85;52.66;98117.66;10286139;28;20039;-23
2022/01/11 22:27:22;;;;;;;9.80;4.68;;;;;;;18.86;52.93;98114.28;10286418;28;20035;-23
2022/01/11 22:32:22;;;;;;;5.70;4.40;;;;;;;18.86;52.78;98114.28;10287014;28;20042;-22
2022/01/11 22:37:23;;;;;;;7.20;4.30;;;;;;;18.84;52.89;98110.88;10292845;28;20302;-22
2022/01/11 22:42:24;;;;;;;5.60;3.92;;;;;;;18.86;52.65;98106.69;10294249;28;20053;-23
2022/01/11 22:47:24;;;;;;;6.45;4.13;;;;;;;18.80;52.99;98106.53;10293696;28;20046;-22
2022/01/11 22:52:25;;;;;;;6.28;3.80;;;;;;;18.85;52.81;98122.72;10293960;28;20410;-22
2022/01/11 22:57:25;;;;;;;4.67;3.80;;;;;;;18.86;52.54;98124.44;10293487;28;20031;-23
2022/01/11 23:02:32;;;;;;;5.20;3.60;;;;;;;18.84;52.79;98136.25;10293275;28;20286;-23
2022/01/11 23:07:33;;;;;;;;;;;;;;;18.84;52.89;98131.16;10293116;28;20098;-22
2022/01/11 23:12:41;;;;;;;5.97;3.40;;;;;;;18.83;53.14;98134.53;10293225;28;20360;-23
2022/01/11 23:17:41;;;;;;;5.63;3.47;;;;;;;18.83;52.93;98135.38;10293206;28;20030;-22
2022/01/11 23:22:42;;;;;;;5.80;3.88;;;;;;;18.83;52.95;98124.38;10309884;28;20036;-23
2022/01/11 23:27:43;;;;;;;5.40;3.43;;;;;;;18.82;52.75;98122.69;10332950;28;20296;-22
2022/01/11 23:32:43;;;;;;;5.90;3.63;;;;;;;18.77;52.94;98111.56;10293145;28;20493;-22
2022/01/11 23:47:56;;;;;;;6.18;3.63;;;;;;;18.81;52.84;98110.78;10290761;28;20164;-23
2022/01/11 23:52:57;;;;;;;6.18;3.80;;;;;;;18.63;52.72;98079.97;10291782;28;20366;-23
2022/01/11 23:57:58;;;;;;;6.90;3.60;;;;;;;18.83;52.72;98109.16;10291313;28;20037;-23
